Bannock, Ohio
Current Conditions -  °F | °C
As of 7:53 AM on Friday 24 Oct 2014 (Local Time) from KHLG Reporting Station
Moderate Fog Moderate Fog  
Wind Chill: 32°   Ceiling: 200
Heat Index: 36°   Visibility: 0.25mi
Dew Point: 36°   Wind: 5mph
Humidity: 100%   Direction: 220°SW
Pressure: 30.11"   Gusts: NA
Location:  40.1°N, 80.98°W
Report Text: KHLG 241153Z 22004KT 1/4SM R03/1200VP6000FT FG VV002 02/02 A3011 RMK AO2 SLP205 T00220022 10050 20022 50004
Loading
Personal Weather Stations






























Interactive Weather Map
Tropical Storm Tracking
New forecast layout! Learn more

10-Day Weather Forecast

Advertisements
Track Severe Weather on mobile